sensor_id;sensor_type;location;lat;lon;timestamp;temperature;humidity
59556;DHT22;45374;52.746;6.304;2023-03-23T00:01:55;11.50;99.90
59556;DHT22;45374;52.746;6.304;2023-03-23T00:04:21;11.40;99.90
59556;DHT22;45374;52.746;6.304;2023-03-23T00:06:48;11.40;99.90
59556;DHT22;45374;52.746;6.304;2023-03-23T00:09:15;11.40;99.90
59556;DHT22;45374;52.746;6.304;2023-03-23T00:11:42;11.40;99.90
59556;DHT22;45374;52.746;6.304;2023-03-23T00:14:09;11.40;99.90
59556;DHT22;45374;52.746;6.304;2023-03-23T00:16:39;11.50;99.90
59556;DHT22;45374;52.746;6.304;2023-03-23T00:19:11;11.50;99.90
59556;DHT22;45374;52.746;6.304;2023-03-23T00:21:40;11.50;99.90
59556;DHT22;45374;52.746;6.304;2023-03-23T00:24:13;11.40;99.90
59556;DHT22;45374;52.746;6.304;2023-03-23T00:26:41;11.40;99.90
59556;DHT22;45374;52.746;6.304;2023-03-23T00:29:14;11.40;99.90
59556;DHT22;45374;52.746;6.304;2023-03-23T00:31:41;11.40;99.90
59556;DHT22;45374;52.746;6.304;2023-03-23T00:34:12;11.40;99.90
59556;DHT22;45374;52.746;6.304;2023-03-23T00:36:38;11.40;99.90
59556;DHT22;45374;52.746;6.304;2023-03-23T00:39:08;11.30;99.90
59556;DHT22;45374;52.746;6.304;2023-03-23T00:41:33;11.40;99.90
59556;DHT22;45374;52.746;6.304;2023-03-23T00:44:02;11.40;99.90
59556;DHT22;45374;52.746;6.304;2023-03-23T00:46:28;11.50;99.90
59556;DHT22;45374;52.746;6.304;2023-03-23T00:48:55;11.40;99.90
59556;DHT22;45374;52.746;6.304;2023-03-23T00:51:22;11.50;99.90
59556;DHT22;45374;52.746;6.304;2023-03-23T00:53:48;11.50;99.90
59556;DHT22;45374;52.746;6.304;2023-03-23T00:56:14;11.40;99.90
59556;DHT22;45374;52.746;6.304;2023-03-23T00:58:40;11.50;99.90
59556;DHT22;45374;52.746;6.304;2023-03-23T01:01:06;11.40;99.90
59556;DHT22;45374;52.746;6.304;2023-03-23T01:03:32;11.30;99.90
59556;DHT22;45374;52.746;6.304;2023-03-23T01:06:05;11.30;99.90
59556;DHT22;45374;52.746;6.304;2023-03-23T01:08:31;11.40;99.90
59556;DHT22;45374;52.746;6.304;2023-03-23T01:11:03;11.40;99.90
59556;DHT22;45374;52.746;6.304;2023-03-23T01:13:29;11.40;99.90
59556;DHT22;45374;52.746;6.304;2023-03-23T01:15:54;11.40;99.90
59556;DHT22;45374;52.746;6.304;2023-03-23T01:18:20;11.40;99.90
59556;DHT22;45374;52.746;6.304;2023-03-23T01:20:45;11.50;99.90
59556;DHT22;45374;52.746;6.304;2023-03-23T01:23:11;11.40;99.90
59556;DHT22;45374;52.746;6.304;2023-03-23T01:25:36;11.40;99.90
59556;DHT22;45374;52.746;6.304;2023-03-23T01:28:02;11.50;99.90
59556;DHT22;45374;52.746;6.304;2023-03-23T01:30:28;11.40;99.90
59556;DHT22;45374;52.746;6.304;2023-03-23T01:32:54;11.40;99.90
59556;DHT22;45374;52.746;6.304;2023-03-23T01:35:20;11.40;99.90
59556;DHT22;45374;52.746;6.304;2023-03-23T01:37:46;11.30;99.90
59556;DHT22;45374;52.746;6.304;2023-03-23T01:40:14;11.40;99.90
59556;DHT22;45374;52.746;6.304;2023-03-23T01:42:40;11.50;99.90
59556;DHT22;45374;52.746;6.304;2023-03-23T01:45:57;11.40;99.90
59556;DHT22;45374;52.746;6.304;2023-03-23T01:48:21;11.50;99.90
59556;DHT22;45374;52.746;6.304;2023-03-23T01:53:18;11.40;99.90
59556;DHT22;45374;52.746;6.304;2023-03-23T01:55:44;11.40;99.90
59556;DHT22;45374;52.746;6.304;2023-03-23T01:58:14;11.30;99.90
59556;DHT22;45374;52.746;6.304;2023-03-23T02:00:40;11.30;99.90
59556;DHT22;45374;52.746;6.304;2023-03-23T02:03:08;11.20;99.90
59556;DHT22;45374;52.746;6.304;2023-03-23T02:05:39;11.30;99.90
59556;DHT22;45374;52.746;6.304;2023-03-23T02:08:06;11.30;99.90
59556;DHT22;45374;52.746;6.304;2023-03-23T02:10:35;11.20;99.90
59556;DHT22;45374;52.746;6.304;2023-03-23T02:13:03;11.20;99.90
59556;DHT22;45374;52.746;6.304;2023-03-23T02:15:41;11.20;99.90
59556;DHT22;45374;52.746;6.304;2023-03-23T02:23:50;11.10;99.90
59556;DHT22;45374;52.746;6.304;2023-03-23T02:26:31;11.20;99.90
59556;DHT22;45374;52.746;6.304;2023-03-23T02:29:13;11.20;99.90
59556;DHT22;45374;52.746;6.304;2023-03-23T02:31:54;11.10;99.90
59556;DHT22;45374;52.746;6.304;2023-03-23T02:37:04;11.10;99.90
59556;DHT22;45374;52.746;6.304;2023-03-23T02:39:57;11.10;99.90
59556;DHT22;45374;52.746;6.304;2023-03-23T02:42:29;11.10;99.90
59556;DHT22;45374;52.746;6.304;2023-03-23T02:44:59;11.10;99.90
59556;DHT22;45374;52.746;6.304;2023-03-23T02:47:29;11.10;99.90
59556;DHT22;45374;52.746;6.304;2023-03-23T02:49:56;11.10;99.90
59556;DHT22;45374;52.746;6.304;2023-03-23T02:52:27;11.10;99.90
59556;DHT22;45374;52.746;6.304;2023-03-23T02:54:56;11.10;99.90
59556;DHT22;45374;52.746;6.304;2023-03-23T02:57:23;11.10;99.90
59556;DHT22;45374;52.746;6.304;2023-03-23T02:59:50;11.10;99.90
59556;DHT22;45374;52.746;6.304;2023-03-23T03:02:33;11.00;99.90
59556;DHT22;45374;52.746;6.304;2023-03-23T03:05:15;11.00;99.90
59556;DHT22;45374;52.746;6.304;2023-03-23T03:13:23;11.10;99.90
59556;DHT22;45374;52.746;6.304;2023-03-23T03:15:56;11.00;99.90
59556;DHT22;45374;52.746;6.304;2023-03-23T03:21:03;11.10;99.90
59556;DHT22;45374;52.746;6.304;2023-03-23T03:23:32;11.10;99.90
59556;DHT22;45374;52.746;6.304;2023-03-23T03:25:59;11.10;99.90
59556;DHT22;45374;52.746;6.304;2023-03-23T03:28:26;11.10;99.90
59556;DHT22;45374;52.746;6.304;2023-03-23T03:30:57;11.20;99.90
59556;DHT22;45374;52.746;6.304;2023-03-23T03:33:27;11.20;99.90
59556;DHT22;45374;52.746;6.304;2023-03-23T03:35:57;11.10;99.90
59556;DHT22;45374;52.746;6.304;2023-03-23T03:38:24;11.20;99.90
59556;DHT22;45374;52.746;6.304;2023-03-23T03:40:51;11.20;99.90
59556;DHT22;45374;52.746;6.304;2023-03-23T03:43:17;11.10;99.90
59556;DHT22;45374;52.746;6.304;2023-03-23T03:45:42;11.20;99.90
59556;DHT22;45374;52.746;6.304;2023-03-23T03:48:08;11.10;99.90
59556;DHT22;45374;52.746;6.304;2023-03-23T03:50:34;11.20;99.90
59556;DHT22;45374;52.746;6.304;2023-03-23T03:53:00;11.10;99.90
59556;DHT22;45374;52.746;6.304;2023-03-23T03:55:25;11.20;99.90
59556;DHT22;45374;52.746;6.304;2023-03-23T03:57:56;11.20;99.90
59556;DHT22;45374;52.746;6.304;2023-03-23T04:00:25;11.20;99.90
59556;DHT22;45374;52.746;6.304;2023-03-23T04:02:51;11.10;99.90
59556;DHT22;45374;52.746;6.304;2023-03-23T04:05:19;11.10;99.90
59556;DHT22;45374;52.746;6.304;2023-03-23T04:07:46;11.10;99.90
59556;DHT22;45374;52.746;6.304;2023-03-23T04:10:17;11.10;99.90
59556;DHT22;45374;52.746;6.304;2023-03-23T04:12:45;11.20;99.90
59556;DHT22;45374;52.746;6.304;2023-03-23T04:15:11;11.20;99.90
59556;DHT22;45374;52.746;6.304;2023-03-23T04:17:36;11.20;99.90
59556;DHT22;45374;52.746;6.304;2023-03-23T04:20:02;11.20;99.90
59556;DHT22;45374;52.746;6.304;2023-03-23T04:22:33;11.20;99.90
59556;DHT22;45374;52.746;6.304;2023-03-23T04:25:00;11.20;99.90
59556;DHT22;45374;52.746;6.304;2023-03-23T04:27:27;11.20;99.90
59556;DHT22;45374;52.746;6.304;2023-03-23T04:29:55;11.20;99.90
59556;DHT22;45374;52.746;6.304;2023-03-23T04:32:23;11.20;99.90
59556;DHT22;45374;52.746;6.304;2023-03-23T04:34:50;11.20;99.90
59556;DHT22;45374;52.746;6.304;2023-03-23T04:37:16;11.20;99.90
59556;DHT22;45374;52.746;6.304;2023-03-23T04:39:41;11.20;99.90
59556;DHT22;45374;52.746;6.304;2023-03-23T04:42:10;11.20;99.90
59556;DHT22;45374;52.746;6.304;2023-03-23T04:44:36;11.20;99.90
59556;DHT22;45374;52.746;6.304;2023-03-23T04:47:02;11.20;99.90
59556;DHT22;45374;52.746;6.304;2023-03-23T04:49:27;11.20;99.90
59556;DHT22;45374;52.746;6.304;2023-03-23T04:51:55;11.10;99.90
59556;DHT22;45374;52.746;6.304;2023-03-23T04:54:22;11.10;99.90
59556;DHT22;45374;52.746;6.304;2023-03-23T04:56:47;10.90;99.90
59556;DHT22;45374;52.746;6.304;2023-03-23T04:59:13;10.90;99.90
59556;DHT22;45374;52.746;6.304;2023-03-23T05:01:40;10.80;99.90
59556;DHT22;45374;52.746;6.304;2023-03-23T05:04:11;10.80;99.90
59556;DHT22;45374;52.746;6.304;2023-03-23T05:06:41;10.70;99.90
59556;DHT22;45374;52.746;6.304;2023-03-23T05:09:11;10.70;99.90
59556;DHT22;45374;52.746;6.304;2023-03-23T05:11:36;10.70;99.90
59556;DHT22;45374;52.746;6.304;2023-03-23T05:14:03;10.70;99.90
59556;DHT22;45374;52.746;6.304;2023-03-23T05:16:29;10.70;99.90
59556;DHT22;45374;52.746;6.304;2023-03-23T05:18:55;10.70;99.90
59556;DHT22;45374;52.746;6.304;2023-03-23T05:21:23;10.80;99.90
59556;DHT22;45374;52.746;6.304;2023-03-23T05:23:48;11.00;99.90
59556;DHT22;45374;52.746;6.304;2023-03-23T05:26:20;10.90;99.90
59556;DHT22;45374;52.746;6.304;2023-03-23T05:28:46;11.00;99.90
59556;DHT22;45374;52.746;6.304;2023-03-23T05:31:11;10.90;99.90
59556;DHT22;45374;52.746;6.304;2023-03-23T05:33:38;11.00;99.90
59556;DHT22;45374;52.746;6.304;2023-03-23T05:36:04;10.90;99.90
59556;DHT22;45374;52.746;6.304;2023-03-23T05:38:32;10.90;99.90
59556;DHT22;45374;52.746;6.304;2023-03-23T05:41:00;10.80;99.90
59556;DHT22;45374;52.746;6.304;2023-03-23T05:43:26;10.70;99.90
59556;DHT22;45374;52.746;6.304;2023-03-23T05:45:52;10.70;99.90
59556;DHT22;45374;52.746;6.304;2023-03-23T05:48:17;10.70;99.90
59556;DHT22;45374;52.746;6.304;2023-03-23T05:50:43;10.70;99.90
59556;DHT22;45374;52.746;6.304;2023-03-23T05:53:08;10.60;99.90
59556;DHT22;45374;52.746;6.304;2023-03-23T05:55:35;10.60;99.90
59556;DHT22;45374;52.746;6.304;2023-03-23T05:58:00;10.50;99.90
59556;DHT22;45374;52.746;6.304;2023-03-23T06:00:26;10.50;99.90
59556;DHT22;45374;52.746;6.304;2023-03-23T06:02:56;10.40;99.90
59556;DHT22;45374;52.746;6.304;2023-03-23T06:05:22;10.40;99.90
59556;DHT22;45374;52.746;6.304;2023-03-23T06:07:47;10.40;99.90
59556;DHT22;45374;52.746;6.304;2023-03-23T06:10:13;10.40;99.90
59556;DHT22;45374;52.746;6.304;2023-03-23T06:12:40;10.40;99.90
59556;DHT22;45374;52.746;6.304;2023-03-23T06:15:06;10.40;99.90
59556;DHT22;45374;52.746;6.304;2023-03-23T06:17:33;10.40;99.90
59556;DHT22;45374;52.746;6.304;2023-03-23T06:19:59;10.40;99.90
59556;DHT22;45374;52.746;6.304;2023-03-23T06:22:25;10.50;99.90
59556;DHT22;45374;52.746;6.304;2023-03-23T06:24:50;10.40;99.90
59556;DHT22;45374;52.746;6.304;2023-03-23T06:27:16;10.50;99.90
59556;DHT22;45374;52.746;6.304;2023-03-23T06:29:43;10.50;99.90
59556;DHT22;45374;52.746;6.304;2023-03-23T06:32:12;10.50;99.90
59556;DHT22;45374;52.746;6.304;2023-03-23T06:34:38;10.60;99.90
59556;DHT22;45374;52.746;6.304;2023-03-23T06:37:06;10.60;99.90
59556;DHT22;45374;52.746;6.304;2023-03-23T06:39:31;10.50;99.90
59556;DHT22;45374;52.746;6.304;2023-03-23T06:41:57;10.60;99.90
59556;DHT22;45374;52.746;6.304;2023-03-23T06:44:25;10.60;99.90
59556;DHT22;45374;52.746;6.304;2023-03-23T06:46:50;10.70;99.90
59556;DHT22;45374;52.746;6.304;2023-03-23T06:49:17;10.70;99.90
59556;DHT22;45374;52.746;6.304;2023-03-23T06:51:43;10.70;99.90
59556;DHT22;45374;52.746;6.304;2023-03-23T06:54:08;10.70;99.90
59556;DHT22;45374;52.746;6.304;2023-03-23T06:56:34;10.80;99.90
59556;DHT22;45374;52.746;6.304;2023-03-23T06:59:02;10.80;99.90
59556;DHT22;45374;52.746;6.304;2023-03-23T07:01:27;10.80;99.90
59556;DHT22;45374;52.746;6.304;2023-03-23T07:03:54;10.90;99.90
59556;DHT22;45374;52.746;6.304;2023-03-23T07:06:21;10.90;99.90
59556;DHT22;45374;52.746;6.304;2023-03-23T07:08:46;11.00;99.90
59556;DHT22;45374;52.746;6.304;2023-03-23T07:11:12;11.00;99.90
59556;DHT22;45374;52.746;6.304;2023-03-23T07:13:38;11.00;99.90
59556;DHT22;45374;52.746;6.304;2023-03-23T07:16:07;11.00;99.90
59556;DHT22;45374;52.746;6.304;2023-03-23T07:18:33;11.00;99.90
59556;DHT22;45374;52.746;6.304;2023-03-23T07:20:59;11.00;99.90
59556;DHT22;45374;52.746;6.304;2023-03-23T07:23:25;11.10;99.90
59556;DHT22;45374;52.746;6.304;2023-03-23T07:25:51;11.20;99.90
59556;DHT22;45374;52.746;6.304;2023-03-23T07:28:17;11.20;99.90
59556;DHT22;45374;52.746;6.304;2023-03-23T07:30:44;11.40;99.90
59556;DHT22;45374;52.746;6.304;2023-03-23T07:33:12;11.50;99.90
59556;DHT22;45374;52.746;6.304;2023-03-23T07:35:38;11.50;99.90
59556;DHT22;45374;52.746;6.304;2023-03-23T07:38:05;11.50;99.90
59556;DHT22;45374;52.746;6.304;2023-03-23T07:40:32;11.50;99.90
59556;DHT22;45374;52.746;6.304;2023-03-23T07:43:01;11.50;99.90
59556;DHT22;45374;52.746;6.304;2023-03-23T07:45:27;11.50;99.90
59556;DHT22;45374;52.746;6.304;2023-03-23T07:47:53;11.50;99.90
59556;DHT22;45374;52.746;6.304;2023-03-23T07:50:19;11.50;99.90
59556;DHT22;45374;52.746;6.304;2023-03-23T07:52:50;11.60;99.90
59556;DHT22;45374;52.746;6.304;2023-03-23T07:55:16;11.60;99.90
59556;DHT22;45374;52.746;6.304;2023-03-23T07:57:46;11.60;99.90
59556;DHT22;45374;52.746;6.304;2023-03-23T08:00:14;11.60;99.90
59556;DHT22;45374;52.746;6.304;2023-03-23T08:02:53;11.60;99.90
59556;DHT22;45374;52.746;6.304;2023-03-23T08:05:20;11.50;99.90
59556;DHT22;45374;52.746;6.304;2023-03-23T08:07:47;11.60;99.90
59556;DHT22;45374;52.746;6.304;2023-03-23T08:10:14;11.60;99.90
59556;DHT22;45374;52.746;6.304;2023-03-23T08:12:42;11.60;99.90
59556;DHT22;45374;52.746;6.304;2023-03-23T08:15:09;11.60;99.90
59556;DHT22;45374;52.746;6.304;2023-03-23T08:17:37;11.60;99.90
59556;DHT22;45374;52.746;6.304;2023-03-23T08:20:03;11.70;99.90
59556;DHT22;45374;52.746;6.304;2023-03-23T08:22:42;11.70;99.90
59556;DHT22;45374;52.746;6.304;2023-03-23T08:25:09;11.60;99.90
59556;DHT22;45374;52.746;6.304;2023-03-23T08:27:35;11.60;99.90
59556;DHT22;45374;52.746;6.304;2023-03-23T08:30:02;11.60;99.90
59556;DHT22;45374;52.746;6.304;2023-03-23T08:32:27;11.60;99.90
59556;DHT22;45374;52.746;6.304;2023-03-23T08:34:53;11.60;99.90
59556;DHT22;45374;52.746;6.304;2023-03-23T08:37:18;11.60;99.90
59556;DHT22;45374;52.746;6.304;2023-03-23T08:39:44;11.70;99.90
59556;DHT22;45374;52.746;6.304;2023-03-23T08:42:10;11.70;99.90
59556;DHT22;45374;52.746;6.304;2023-03-23T08:44:36;11.80;99.90
59556;DHT22;45374;52.746;6.304;2023-03-23T08:47:02;11.90;99.90
59556;DHT22;45374;52.746;6.304;2023-03-23T08:49:30;11.90;99.90
59556;DHT22;45374;52.746;6.304;2023-03-23T08:51:58;11.90;99.90
59556;DHT22;45374;52.746;6.304;2023-03-23T08:54:23;11.80;99.90
59556;DHT22;45374;52.746;6.304;2023-03-23T08:56:49;11.80;99.90
59556;DHT22;45374;52.746;6.304;2023-03-23T08:59:15;11.80;99.90
59556;DHT22;45374;52.746;6.304;2023-03-23T09:01:41;11.80;99.90
59556;DHT22;45374;52.746;6.304;2023-03-23T09:04:07;11.90;99.90
59556;DHT22;45374;52.746;6.304;2023-03-23T09:06:35;12.00;99.90
59556;DHT22;45374;52.746;6.304;2023-03-23T09:09:01;12.10;99.90
59556;DHT22;45374;52.746;6.304;2023-03-23T09:11:34;12.10;99.90
59556;DHT22;45374;52.746;6.304;2023-03-23T09:14:02;12.00;99.90
59556;DHT22;45374;52.746;6.304;2023-03-23T09:16:27;11.90;99.90
59556;DHT22;45374;52.746;6.304;2023-03-23T09:18:54;11.80;99.90
59556;DHT22;45374;52.746;6.304;2023-03-23T09:21:20;11.80;99.90
59556;DHT22;45374;52.746;6.304;2023-03-23T09:23:47;11.80;99.90
59556;DHT22;45374;52.746;6.304;2023-03-23T09:26:13;11.80;99.90
59556;DHT22;45374;52.746;6.304;2023-03-23T09:28:39;11.80;99.90
59556;DHT22;45374;52.746;6.304;2023-03-23T09:31:05;11.80;99.90
59556;DHT22;45374;52.746;6.304;2023-03-23T09:33:31;11.70;99.90
59556;DHT22;45374;52.746;6.304;2023-03-23T09:35:59;11.70;99.90
59556;DHT22;45374;52.746;6.304;2023-03-23T09:38:27;11.70;99.90
59556;DHT22;45374;52.746;6.304;2023-03-23T09:41:16;11.60;99.90
59556;DHT22;45374;52.746;6.304;2023-03-23T09:49:10;11.80;99.90
59556;DHT22;45374;52.746;6.304;2023-03-23T09:51:51;11.80;99.90
59556;DHT22;45374;52.746;6.304;2023-03-23T09:54:29;11.70;99.90
59556;DHT22;45374;52.746;6.304;2023-03-23T09:56:58;11.70;99.90
59556;DHT22;45374;52.746;6.304;2023-03-23T09:59:26;11.60;99.90
59556;DHT22;45374;52.746;6.304;2023-03-23T10:02:15;11.60;99.90
59556;DHT22;45374;52.746;6.304;2023-03-23T10:04:50;11.60;99.90
59556;DHT22;45374;52.746;6.304;2023-03-23T10:07:23;11.60;99.90
59556;DHT22;45374;52.746;6.304;2023-03-23T10:09:52;11.60;99.90
59556;DHT22;45374;52.746;6.304;2023-03-23T10:12:25;11.60;99.90
59556;DHT22;45374;52.746;6.304;2023-03-23T10:15:23;11.60;99.90
59556;DHT22;45374;52.746;6.304;2023-03-23T10:18:15;11.80;99.90
59556;DHT22;45374;52.746;6.304;2023-03-23T10:28:44;12.50;99.90
59556;DHT22;45374;52.746;6.304;2023-03-23T10:31:26;12.80;99.90
59556;DHT22;45374;52.746;6.304;2023-03-23T10:33:57;13.30;99.90
59556;DHT22;45374;52.746;6.304;2023-03-23T10:36:35;13.60;99.90
59556;DHT22;45374;52.746;6.304;2023-03-23T10:39:17;13.70;99.90
59556;DHT22;45374;52.746;6.304;2023-03-23T10:41:44;13.90;99.90
59556;DHT22;45374;52.746;6.304;2023-03-23T10:46:49;13.50;99.90
59556;DHT22;45374;52.746;6.304;2023-03-23T10:49:47;13.10;99.90
59556;DHT22;45374;52.746;6.304;2023-03-23T10:55:04;12.50;99.90
59556;DHT22;45374;52.746;6.304;2023-03-23T10:57:32;12.50;99.90
59556;DHT22;45374;52.746;6.304;2023-03-23T11:00:06;12.60;99.90
59556;DHT22;45374;52.746;6.304;2023-03-23T11:02:39;13.00;99.90
59556;DHT22;45374;52.746;6.304;2023-03-23T11:05:41;13.40;99.90
59556;DHT22;45374;52.746;6.304;2023-03-23T11:08:16;13.80;99.90
59556;DHT22;45374;52.746;6.304;2023-03-23T11:13:17;13.50;99.90
59556;DHT22;45374;52.746;6.304;2023-03-23T11:15:45;13.70;99.90
59556;DHT22;45374;52.746;6.304;2023-03-23T11:18:25;13.90;99.90
59556;DHT22;45374;52.746;6.304;2023-03-23T11:20:54;14.20;99.90
59556;DHT22;45374;52.746;6.304;2023-03-23T11:25:59;14.30;99.90
59556;DHT22;45374;52.746;6.304;2023-03-23T11:28:33;14.20;99.90
59556;DHT22;45374;52.746;6.304;2023-03-23T11:31:01;14.00;99.90
59556;DHT22;45374;52.746;6.304;2023-03-23T11:33:37;13.80;99.90
59556;DHT22;45374;52.746;6.304;2023-03-23T11:36:06;13.60;99.90
59556;DHT22;45374;52.746;6.304;2023-03-23T11:38:33;13.50;99.90
59556;DHT22;45374;52.746;6.304;2023-03-23T11:40:59;13.40;99.90
59556;DHT22;45374;52.746;6.304;2023-03-23T11:43:25;13.40;99.90
59556;DHT22;45374;52.746;6.304;2023-03-23T11:46:44;13.40;99.90
59556;DHT22;45374;52.746;6.304;2023-03-23T11:49:08;13.40;99.90
59556;DHT22;45374;52.746;6.304;2023-03-23T11:51:53;13.90;99.90
59556;DHT22;45374;52.746;6.304;2023-03-23T11:54:32;14.40;99.90
59556;DHT22;45374;52.746;6.304;2023-03-23T11:56:58;14.40;99.90
59556;DHT22;45374;52.746;6.304;2023-03-23T11:59:29;13.90;99.90
59556;DHT22;45374;52.746;6.304;2023-03-23T12:10:15;13.40;99.90
59556;DHT22;45374;52.746;6.304;2023-03-23T12:12:56;13.30;99.90
59556;DHT22;45374;52.746;6.304;2023-03-23T12:18:40;13.10;99.90
59556;DHT22;45374;52.746;6.304;2023-03-23T12:24:00;13.70;99.90
59556;DHT22;45374;52.746;6.304;2023-03-23T12:29:30;13.70;99.90
59556;DHT22;45374;52.746;6.304;2023-03-23T12:34:41;13.60;99.90
59556;DHT22;45374;52.746;6.304;2023-03-23T12:48:29;13.30;99.90
59556;DHT22;45374;52.746;6.304;2023-03-23T12:51:21;13.30;99.90
59556;DHT22;45374;52.746;6.304;2023-03-23T12:54:03;13.40;99.90
59556;DHT22;45374;52.746;6.304;2023-03-23T12:57:03;13.50;99.90
59556;DHT22;45374;52.746;6.304;2023-03-23T13:07:59;14.20;99.90
59556;DHT22;45374;52.746;6.304;2023-03-23T13:10:29;14.40;99.90
59556;DHT22;45374;52.746;6.304;2023-03-23T13:12:57;14.80;99.90
59556;DHT22;45374;52.746;6.304;2023-03-23T13:23:20;14.80;99.90
59556;DHT22;45374;52.746;6.304;2023-03-23T13:25:54;15.20;99.90
59556;DHT22;45374;52.746;6.304;2023-03-23T13:28:28;15.20;99.90
59556;DHT22;45374;52.746;6.304;2023-03-23T13:33:20;15.20;99.90
59556;DHT22;45374;52.746;6.304;2023-03-23T13:35:48;14.80;99.90
59556;DHT22;45374;52.746;6.304;2023-03-23T13:38:24;14.40;99.90
59556;DHT22;45374;52.746;6.304;2023-03-23T13:40:51;14.10;99.90
59556;DHT22;45374;52.746;6.304;2023-03-23T13:43:33;14.00;99.90
59556;DHT22;45374;52.746;6.304;2023-03-23T13:48:50;14.10;99.90
59556;DHT22;45374;52.746;6.304;2023-03-23T13:56:57;13.50;99.90
59556;DHT22;45374;52.746;6.304;2023-03-23T14:01:52;13.00;99.90
59556;DHT22;45374;52.746;6.304;2023-03-23T14:04:19;12.80;99.90
59556;DHT22;45374;52.746;6.304;2023-03-23T14:06:47;12.70;99.90
59556;DHT22;45374;52.746;6.304;2023-03-23T14:09:19;12.70;99.90
59556;DHT22;45374;52.746;6.304;2023-03-23T14:11:59;12.90;99.90
59556;DHT22;45374;52.746;6.304;2023-03-23T14:14:33;13.20;99.90
59556;DHT22;45374;52.746;6.304;2023-03-23T14:17:13;13.40;99.90
59556;DHT22;45374;52.746;6.304;2023-03-23T14:19:40;13.30;99.90
59556;DHT22;45374;52.746;6.304;2023-03-23T14:24:42;13.70;99.90
59556;DHT22;45374;52.746;6.304;2023-03-23T14:27:11;13.90;99.90
59556;DHT22;45374;52.746;6.304;2023-03-23T14:29:37;14.00;99.90
59556;DHT22;45374;52.746;6.304;2023-03-23T14:32:06;14.20;99.90
59556;DHT22;45374;52.746;6.304;2023-03-23T14:34:33;14.30;99.90
59556;DHT22;45374;52.746;6.304;2023-03-23T14:36:59;14.40;99.90
59556;DHT22;45374;52.746;6.304;2023-03-23T14:39:28;14.40;99.90
59556;DHT22;45374;52.746;6.304;2023-03-23T14:41:56;14.50;99.90
59556;DHT22;45374;52.746;6.304;2023-03-23T14:44:26;14.40;99.90
59556;DHT22;45374;52.746;6.304;2023-03-23T14:46:54;14.20;99.90
59556;DHT22;45374;52.746;6.304;2023-03-23T14:49:43;14.10;99.90
59556;DHT22;45374;52.746;6.304;2023-03-23T14:52:14;13.90;99.90
59556;DHT22;45374;52.746;6.304;2023-03-23T14:54:41;14.20;99.90
59556;DHT22;45374;52.746;6.304;2023-03-23T14:59:36;14.30;99.90
59556;DHT22;45374;52.746;6.304;2023-03-23T15:02:05;14.20;99.90
59556;DHT22;45374;52.746;6.304;2023-03-23T15:04:31;14.00;99.90
59556;DHT22;45374;52.746;6.304;2023-03-23T15:07:02;13.90;99.90
59556;DHT22;45374;52.746;6.304;2023-03-23T15:09:28;14.10;99.90
59556;DHT22;45374;52.746;6.304;2023-03-23T15:12:00;14.30;99.90
59556;DHT22;45374;52.746;6.304;2023-03-23T15:14:45;14.40;99.90
59556;DHT22;45374;52.746;6.304;2023-03-23T15:17:19;14.60;99.90
59556;DHT22;45374;52.746;6.304;2023-03-23T15:19:45;14.50;99.90
59556;DHT22;45374;52.746;6.304;2023-03-23T15:22:26;14.50;99.90
59556;DHT22;45374;52.746;6.304;2023-03-23T15:25:08;14.40;99.90
59556;DHT22;45374;52.746;6.304;2023-03-23T15:27:43;14.50;99.90
59556;DHT22;45374;52.746;6.304;2023-03-23T15:33:02;14.60;99.90
59556;DHT22;45374;52.746;6.304;2023-03-23T15:35:33;14.70;99.90
59556;DHT22;45374;52.746;6.304;2023-03-23T15:38:05;14.80;99.90
59556;DHT22;45374;52.746;6.304;2023-03-23T15:40:40;14.80;99.90
59556;DHT22;45374;52.746;6.304;2023-03-23T15:43:22;15.00;99.90
59556;DHT22;45374;52.746;6.304;2023-03-23T15:45:56;15.10;99.90
59556;DHT22;45374;52.746;6.304;2023-03-23T15:48:25;14.90;99.90
59556;DHT22;45374;52.746;6.304;2023-03-23T15:50:51;14.90;99.90
59556;DHT22;45374;52.746;6.304;2023-03-23T15:53:28;14.80;99.90
59556;DHT22;45374;52.746;6.304;2023-03-23T15:55:57;14.90;99.90
59556;DHT22;45374;52.746;6.304;2023-03-23T15:58:23;14.80;99.90
59556;DHT22;45374;52.746;6.304;2023-03-23T16:00:50;14.80;99.90
59556;DHT22;45374;52.746;6.304;2023-03-23T16:03:22;14.80;99.90
59556;DHT22;45374;52.746;6.304;2023-03-23T16:05:52;14.80;99.90
59556;DHT22;45374;52.746;6.304;2023-03-23T16:08:18;14.60;99.90
59556;DHT22;45374;52.746;6.304;2023-03-23T16:10:44;14.30;99.90
59556;DHT22;45374;52.746;6.304;2023-03-23T16:13:09;14.10;99.90
59556;DHT22;45374;52.746;6.304;2023-03-23T16:15:35;13.90;99.90
59556;DHT22;45374;52.746;6.304;2023-03-23T16:18:01;13.70;99.90
59556;DHT22;45374;52.746;6.304;2023-03-23T16:20:28;13.60;99.90
59556;DHT22;45374;52.746;6.304;2023-03-23T16:22:54;13.50;99.90
59556;DHT22;45374;52.746;6.304;2023-03-23T16:25:20;13.50;99.90
59556;DHT22;45374;52.746;6.304;2023-03-23T16:27:46;13.50;99.90
59556;DHT22;45374;52.746;6.304;2023-03-23T16:30:26;13.70;99.90
59556;DHT22;45374;52.746;6.304;2023-03-23T16:32:52;13.80;99.90
59556;DHT22;45374;52.746;6.304;2023-03-23T16:35:19;14.00;99.90
59556;DHT22;45374;52.746;6.304;2023-03-23T16:37:50;14.20;99.90
59556;DHT22;45374;52.746;6.304;2023-03-23T16:40:17;14.40;99.90
59556;DHT22;45374;52.746;6.304;2023-03-23T16:42:43;14.30;99.90
59556;DHT22;45374;52.746;6.304;2023-03-23T16:45:09;14.20;99.90
59556;DHT22;45374;52.746;6.304;2023-03-23T16:47:36;14.00;99.90
59556;DHT22;45374;52.746;6.304;2023-03-23T16:50:02;13.80;99.90
59556;DHT22;45374;52.746;6.304;2023-03-23T16:52:28;13.60;99.90
59556;DHT22;45374;52.746;6.304;2023-03-23T16:54:53;13.50;99.90
59556;DHT22;45374;52.746;6.304;2023-03-23T16:57:19;13.30;99.90
59556;DHT22;45374;52.746;6.304;2023-03-23T16:59:45;13.20;99.90
59556;DHT22;45374;52.746;6.304;2023-03-23T17:02:11;13.00;99.90
59556;DHT22;45374;52.746;6.304;2023-03-23T17:04:41;12.90;99.90
59556;DHT22;45374;52.746;6.304;2023-03-23T17:07:12;12.90;99.90
59556;DHT22;45374;52.746;6.304;2023-03-23T17:09:39;12.80;99.90
59556;DHT22;45374;52.746;6.304;2023-03-23T17:12:05;12.70;99.90
59556;DHT22;45374;52.746;6.304;2023-03-23T17:14:31;12.70;99.90
59556;DHT22;45374;52.746;6.304;2023-03-23T17:16:57;12.60;99.90
59556;DHT22;45374;52.746;6.304;2023-03-23T17:19:23;12.60;99.90
59556;DHT22;45374;52.746;6.304;2023-03-23T17:21:52;12.50;99.90
59556;DHT22;45374;52.746;6.304;2023-03-23T17:24:17;12.50;99.90
59556;DHT22;45374;52.746;6.304;2023-03-23T17:26:43;12.50;99.90
59556;DHT22;45374;52.746;6.304;2023-03-23T17:29:09;12.40;99.90
59556;DHT22;45374;52.746;6.304;2023-03-23T17:31:35;12.30;99.90
59556;DHT22;45374;52.746;6.304;2023-03-23T17:34:13;12.30;99.90
59556;DHT22;45374;52.746;6.304;2023-03-23T17:36:39;12.30;99.90